Time;durP1;ratioP1;P1;durP2;ratioP2;P2;SDS_P1;SDS_P2;PMS_P1;PMS_P2;Temp;Humidity;BMP_temperature;BMP_pressure;BME280_temperature;BME280_humidity;BME280_pressure;Samples;Min_cycle;Max_cycle;Signal;HPM_P1;HPM_P2
2023/02/10 00:01:33;;;;;;;44.92;9.80;;;0.60;99.90;;;;;;6183235;23;20020;-80
2023/02/10 00:03:59;;;;;;;43.63;8.80;;;0.90;99.90;;;;;;6212228;23;20364;-84
2023/02/10 00:06:26;;;;;;;37.88;8.63;;;1.00;99.90;;;;;;6185234;23;20009;-81
2023/02/10 00:09:00;;;;;;;40.95;9.52;;;0.90;99.90;;;;;;6185000;23;20009;-81
2023/02/10 00:14:17;;;;;;;42.17;10.45;;;0.60;99.90;;;;;;6156639;23;20092;-84
2023/02/10 00:16:43;;;;;;;42.22;9.55;;;0.80;99.90;;;;;;6153613;23;20147;-84
2023/02/10 00:19:09;;;;;;;43.63;10.27;;;0.80;99.90;;;;;;6179710;23;20651;-82
2023/02/10 00:21:35;;;;;;;54.67;10.93;;;0.50;99.90;;;;;;6131620;23;20028;-84
2023/02/10 00:24:01;;;;;;;49.72;10.90;;;1.10;99.90;;;;;;6131144;23;20043;-83
2023/02/10 00:26:26;;;;;;;44.83;11.80;;;0.60;99.90;;;;;;6156530;23;20081;-84
2023/02/10 00:28:52;;;;;;;49.60;11.75;;;0.90;99.90;;;;;;6155315;23;20373;-80
2023/02/10 00:31:18;;;;;;;58.60;12.18;;;1.10;99.90;;;;;;6154425;23;20013;-84
2023/02/10 00:33:45;;;;;;;46.03;11.40;;;0.80;99.90;;;;;;6156382;23;20088;-82
2023/02/10 00:36:13;;;;;;;55.50;12.45;;;1.20;99.90;;;;;;6129519;23;20017;-81
2023/02/10 00:38:39;;;;;;;42.63;12.40;;;0.80;99.90;;;;;;6155002;23;20021;-82
2023/02/10 00:41:24;;;;;;;46.08;12.77;;;1.30;99.90;;;;;;6155762;23;20330;-81
2023/02/10 00:43:50;;;;;;;50.45;12.32;;;0.70;99.90;;;;;;6180302;23;20017;-83
2023/02/10 00:46:18;;;;;;;51.30;11.70;;;0.70;99.90;;;;;;6179639;23;20017;-81
2023/02/10 00:48:44;;;;;;;51.22;11.77;;;0.70;99.90;;;;;;6156863;23;20407;-83
2023/02/10 00:51:11;;;;;;;45.75;12.18;;;1.20;99.90;;;;;;6132614;23;20036;-84
2023/02/10 00:53:36;;;;;;;48.28;11.73;;;1.20;99.90;;;;;;6159219;23;20081;-81
2023/02/10 00:56:02;;;;;;;53.72;12.40;;;1.00;99.90;;;;;;6165705;23;20067;-80
2023/02/10 00:58:28;;;;;;;61.03;12.43;;;0.80;99.90;;;;;;6139315;23;20128;-84
2023/02/10 01:00:54;;;;;;;43.72;12.20;;;1.30;99.90;;;;;;6136896;23;20067;-80
2023/02/10 01:03:20;;;;;;;48.05;12.13;;;0.70;99.90;;;;;;6135378;23;20495;-82
2023/02/10 01:05:46;;;;;;;48.42;11.88;;;0.90;99.90;;;;;;6154446;23;20020;-82
2023/02/10 01:08:12;;;;;;;53.97;12.88;;;0.70;99.90;;;;;;6132410;23;20016;-81
2023/02/10 01:10:39;;;;;;;52.03;11.27;;;0.80;99.90;;;;;;6131574;23;20017;-82
2023/02/10 01:13:06;;;;;;;50.92;11.43;;;1.00;99.90;;;;;;6133277;23;20024;-82
2023/02/10 01:15:32;;;;;;;51.10;11.95;;;1.10;99.90;;;;;;6133277;23;20009;-83
2023/02/10 01:17:58;;;;;;;48.60;11.98;;;1.10;99.90;;;;;;6208100;23;20457;-84
2023/02/10 01:20:25;;;;;;;41.30;11.98;;;1.10;99.90;;;;;;6162309;23;20048;-81
2023/02/10 01:22:51;;;;;;;49.67;12.02;;;0.80;99.90;;;;;;6186874;23;20019;-81
2023/02/10 01:25:17;;;;;;;45.90;11.35;;;0.70;99.90;;;;;;6162134;23;20629;-83
2023/02/10 01:27:42;;;;;;;49.60;12.68;;;0.60;99.90;;;;;;6161738;23;20020;-83
2023/02/10 01:30:09;;;;;;;51.38;12.07;;;1.10;99.90;;;;;;6187505;23;20021;-80
2023/02/10 01:32:34;;;;;;;48.03;11.63;;;0.90;99.90;;;;;;6186729;23;20318;-82
2023/02/10 01:35:00;;;;;;;53.85;11.50;;;0.70;99.90;;;;;;6186612;23;20020;-83
2023/02/10 01:37:26;;;;;;;41.45;11.60;;;1.20;99.90;;;;;;6186875;23;20063;-83
2023/02/10 01:39:52;;;;;;;47.83;11.38;;;1.20;99.90;;;;;;6186756;23;20013;-82
2023/02/10 01:42:17;;;;;;;45.25;10.88;;;1.00;99.90;;;;;;6186849;23;20341;-83
2023/02/10 01:44:43;;;;;;;51.42;10.48;;;1.10;99.90;;;;;;6161246;23;20031;-85
2023/02/10 01:47:09;;;;;;;48.50;11.15;;;1.20;99.90;;;;;;6186085;23;20024;-84
2023/02/10 01:49:40;;;;;;;58.38;10.98;;;1.30;99.90;;;;;;6184664;23;20038;-82
2023/02/10 01:52:36;;;;;;;44.95;10.98;;;0.80;99.90;;;;;;6186897;23;20021;-82
2023/02/10 01:55:07;;;;;;;56.55;10.75;;;0.80;99.90;;;;;;6043852;23;20017;-84
2023/02/10 01:57:34;;;;;;;45.85;10.40;;;1.20;99.90;;;;;;6044393;23;20072;-84
2023/02/10 02:00:02;;;;;;;43.25;10.00;;;0.90;99.90;;;;;;6043213;23;20089;-85
2023/02/10 02:02:28;;;;;;;50.25;9.45;;;1.00;99.90;;;;;;6067459;23;20015;-83
2023/02/10 02:04:59;;;;;;;44.63;9.55;;;0.80;99.90;;;;;;6091392;23;20049;-83
2023/02/10 02:07:28;;;;;;;43.88;9.40;;;1.20;99.90;;;;;;6044307;23;20074;-83
2023/02/10 02:09:56;;;;;;;49.38;9.57;;;1.10;99.90;;;;;;6043205;23;20022;-84
2023/02/10 02:12:37;;;;;;;49.33;9.45;;;1.00;99.90;;;;;;6067040;23;20014;-82
2023/02/10 02:15:44;;;;;;;55.97;9.38;;;0.60;99.90;;;;;;6091064;23;20011;-84
2023/02/10 02:18:30;;;;;;;45.42;9.40;;;1.10;99.90;;;;;;6057905;23;20435;-81
2023/02/10 02:21:54;;;;;;;59.63;9.90;;;1.00;99.90;;;;;;6044079;23;20749;-83
2023/02/10 02:24:43;;;;;;;52.08;9.75;;;1.00;99.90;;;;;;5981911;23;20064;-84
2023/02/10 02:27:25;;;;;;;42.08;9.52;;;0.80;99.90;;;;;;5981829;23;20022;-85
2023/02/10 02:30:09;;;;;;;39.42;8.65;;;0.80;99.90;;;;;;5959760;23;20436;-83
2023/02/10 02:33:05;;;;;;;35.63;7.97;;;0.60;99.90;;;;;;6047137;23;20305;-85
2023/02/10 02:35:43;;;;;;;51.72;9.07;;;0.90;99.90;;;;;;6015738;23;20011;-83
2023/02/10 02:38:09;;;;;;;36.20;8.85;;;0.80;99.90;;;;;;6012230;23;20433;-81
2023/02/10 02:40:35;;;;;;;49.95;9.23;;;0.60;99.90;;;;;;6063100;23;20074;-83
2023/02/10 02:43:01;;;;;;;33.97;8.90;;;0.50;99.90;;;;;;6063400;23;20022;-85
2023/02/10 02:45:38;;;;;;;41.70;8.77;;;1.00;99.90;;;;;;6014501;23;20018;-83
2023/02/10 02:48:19;;;;;;;50.22;9.82;;;1.00;99.90;;;;;;6069056;23;20446;-85
2023/02/10 02:51:02;;;;;;;42.42;10.00;;;0.60;99.90;;;;;;6063181;23;20563;-83
2023/02/10 02:53:40;;;;;;;43.17;10.20;;;0.60;99.90;;;;;;6037375;23;20022;-82
2023/02/10 02:56:39;;;;;;;42.13;9.68;;;0.80;99.90;;;;;;5981325;23;20192;-84
2023/02/10 02:59:45;;;;;;;34.80;8.98;;;0.80;99.90;;;;;;5980289;23;20011;-83
2023/02/10 03:02:13;;;;;;;33.25;8.65;;;0.50;99.90;;;;;;6044194;23;20288;-85
2023/02/10 03:04:40;;;;;;;44.30;9.90;;;0.40;99.90;;;;;;6092119;23;20513;-83
2023/02/10 03:07:06;;;;;;;50.85;9.88;;;0.50;99.90;;;;;;6091432;23;20019;-85
2023/02/10 03:09:32;;;;;;;34.53;9.32;;;0.50;99.90;;;;;;6042975;23;20045;-83
2023/02/10 03:12:17;;;;;;;42.72;9.60;;;0.40;99.90;;;;;;6106364;23;20095;-84
2023/02/10 03:14:42;;;;;;;44.10;9.43;;;0.40;99.90;;;;;;6162067;23;20031;-84
2023/02/10 03:17:08;;;;;;;39.00;9.00;;;0.40;99.90;;;;;;6195867;23;20334;-84
2023/02/10 03:19:34;;;;;;;44.10;9.73;;;0.50;99.90;;;;;;6209513;23;20051;-82
2023/02/10 03:22:00;;;;;;;46.42;9.15;;;0.90;99.90;;;;;;6186816;23;20040;-84
2023/02/10 03:24:26;;;;;;;40.80;9.52;;;0.50;99.90;;;;;;6210130;23;20092;-85
2023/02/10 03:26:52;;;;;;;43.10;9.18;;;0.40;99.90;;;;;;6186175;23;20066;-85
2023/02/10 03:29:17;;;;;;;48.40;9.48;;;0.40;99.90;;;;;;6208917;23;20115;-82
2023/02/10 03:31:43;;;;;;;48.25;10.30;;;0.40;99.90;;;;;;6185727;23;20048;-82
2023/02/10 03:34:09;;;;;;;48.40;10.40;;;0.50;99.90;;;;;;6184355;23;20024;-85
2023/02/10 03:36:35;;;;;;;58.08;9.80;;;0.80;99.90;;;;;;6184449;23;20016;-85
2023/02/10 03:39:02;;;;;;;50.05;9.82;;;0.80;99.90;;;;;;6182540;23;20023;-82
2023/02/10 03:41:28;;;;;;;40.08;9.10;;;0.70;99.90;;;;;;6183731;23;20016;-81
2023/02/10 03:43:54;;;;;;;51.13;9.00;;;0.30;99.90;;;;;;6184002;23;20031;-83
2023/02/10 03:46:21;;;;;;;41.72;9.48;;;0.30;99.90;;;;;;6208011;23;20543;-82
2023/02/10 03:48:46;;;;;;;40.25;9.45;;;0.70;99.90;;;;;;6184580;23;20012;-82
2023/02/10 03:51:12;;;;;;;51.22;9.23;;;0.30;99.90;;;;;;6210193;23;20474;-85
2023/02/10 03:53:38;;;;;;;50.33;9.43;;;0.90;99.90;;;;;;6185346;23;20091;-86
2023/02/10 03:56:04;;;;;;;49.00;9.88;;;0.30;99.90;;;;;;6194304;23;20015;-80
2023/02/10 03:58:30;;;;;;;46.70;9.77;;;0.70;99.90;;;;;;6197136;23;20024;-82
2023/02/10 04:00:55;;;;;;;49.92;9.95;;;0.50;99.90;;;;;;6208381;23;20012;-82
2023/02/10 04:03:21;;;;;;;34.95;9.00;;;0.60;99.90;;;;;;6182696;23;20265;-83
2023/02/10 04:05:47;;;;;;;43.63;9.48;;;0.40;99.90;;;;;;6208717;23;20017;-82
2023/02/10 04:08:12;;;;;;;44.70;9.77;;;0.90;99.90;;;;;;6208321;23;20013;-85
2023/02/10 04:10:38;;;;;;;50.97;9.05;;;0.80;99.90;;;;;;6182850;23;20101;-83
2023/02/10 04:13:04;;;;;;;40.58;10.32;;;0.70;99.90;;;;;;6208293;23;20099;-85
2023/02/10 04:15:29;;;;;;;57.30;10.48;;;1.00;99.90;;;;;;6207891;23;20036;-82
2023/02/10 04:17:58;;;;;;;48.72;10.63;;;0.50;99.90;;;;;;6182711;23;20044;-81
2023/02/10 04:20:24;;;;;;;39.75;9.07;;;0.50;99.90;;;;;;6208313;23;20023;-85
2023/02/10 04:22:50;;;;;;;49.60;10.57;;;1.00;99.90;;;;;;6208527;23;20099;-82
2023/02/10 04:25:16;;;;;;;37.92;10.40;;;1.10;99.90;;;;;;6183644;23;20048;-83
2023/02/10 04:27:42;;;;;;;41.08;10.80;;;0.70;99.90;;;;;;6183147;23;20016;-82
2023/02/10 04:30:09;;;;;;;50.42;10.55;;;1.00;99.90;;;;;;6182800;23;20066;-82
2023/02/10 04:32:34;;;;;;;38.95;10.18;;;0.70;99.90;;;;;;6209591;23;20100;-84
2023/02/10 04:35:00;;;;;;;43.55;9.73;;;0.70;99.90;;;;;;6209820;23;20429;-83
2023/02/10 04:37:26;;;;;;;57.03;9.88;;;1.10;99.90;;;;;;6209932;23;20016;-83
2023/02/10 04:39:52;;;;;;;44.35;11.05;;;1.10;99.90;;;;;;6183014;23;20368;-82
2023/02/10 04:42:18;;;;;;;42.33;10.52;;;1.10;99.90;;;;;;6208370;23;20020;-83
2023/02/10 04:44:43;;;;;;;44.00;10.13;;;1.00;99.90;;;;;;6183555;23;20024;-84
2023/02/10 04:47:09;;;;;;;50.20;11.05;;;0.50;99.90;;;;;;6209510;23;20087;-81
2023/02/10 04:49:34;;;;;;;44.53;10.30;;;1.10;99.90;;;;;;6207193;23;20008;-81
2023/02/10 04:52:00;;;;;;;51.05;10.80;;;0.90;99.90;;;;;;6207059;23;20021;-83
2023/02/10 04:54:26;;;;;;;43.20;10.23;;;1.00;99.90;;;;;;6182831;23;20024;-85
2023/02/10 04:56:52;;;;;;;50.83;11.00;;;0.70;99.90;;;;;;6185162;23;20056;-83
2023/02/10 04:59:17;;;;;;;55.03;10.80;;;1.10;99.90;;;;;;6220899;23;20056;-83
2023/02/10 05:01:43;;;;;;;37.67;10.75;;;0.60;99.90;;;;;;6185994;23;20109;-84
2023/02/10 05:04:08;;;;;;;60.63;11.10;;;0.70;99.90;;;;;;6212338;23;20103;-82
2023/02/10 05:06:34;;;;;;;46.97;9.75;;;0.60;99.90;;;;;;6212206;23;20063;-82
2023/02/10 05:09:00;;;;;;;36.65;10.52;;;0.60;99.90;;;;;;6213399;23;20058;-83
2023/02/10 05:11:26;;;;;;;52.55;10.52;;;0.70;99.90;;;;;;6186112;23;20009;-84
2023/02/10 05:13:51;;;;;;;51.85;10.40;;;0.60;99.90;;;;;;6212151;23;20145;-84
2023/02/10 05:16:17;;;;;;;44.72;10.50;;;1.00;99.90;;;;;;6211853;23;20012;-83
2023/02/10 05:18:44;;;;;;;43.67;10.30;;;0.70;99.90;;;;;;6214171;23;20027;-82
2023/02/10 05:21:11;;;;;;;47.38;10.80;;;0.60;99.90;;;;;;6161121;23;20075;-82
2023/02/10 05:23:39;;;;;;;44.92;10.30;;;0.70;99.90;;;;;;6160684;23;20027;-82
2023/02/10 05:26:05;;;;;;;51.80;11.23;;;1.00;99.90;;;;;;6161738;23;20325;-81
2023/02/10 05:28:30;;;;;;;45.58;10.25;;;0.50;99.90;;;;;;6173082;23;20028;-84
2023/02/10 05:30:56;;;;;;;39.30;10.48;;;0.60;99.90;;;;;;6160008;23;20019;-82
2023/02/10 05:33:22;;;;;;;50.03;12.43;;;1.10;99.90;;;;;;6158556;23;20096;-81
2023/02/10 05:35:47;;;;;;;47.53;12.10;;;0.70;99.90;;;;;;6183876;23;20023;-82
2023/02/10 05:38:13;;;;;;;47.00;11.35;;;0.80;99.90;;;;;;6158410;23;20012;-82
2023/02/10 05:40:39;;;;;;;46.28;12.02;;;1.20;99.90;;;;;;6182871;23;20029;-81
2023/02/10 05:43:04;;;;;;;50.70;12.50;;;1.10;99.90;;;;;;6183181;23;20425;-82
2023/02/10 05:45:30;;;;;;;58.13;13.07;;;0.80;99.90;;;;;;6159387;23;20119;-82
2023/02/10 05:47:56;;;;;;;48.50;12.52;;;1.20;99.90;;;;;;6159366;23;20047;-83
2023/02/10 05:50:21;;;;;;;49.65;12.70;;;1.20;99.90;;;;;;6183861;23;20013;-81
2023/02/10 05:52:47;;;;;;;52.15;13.13;;;1.10;99.90;;;;;;6163352;23;20047;-81
2023/02/10 05:55:13;;;;;;;55.05;13.27;;;1.50;99.90;;;;;;6158969;23;20352;-81
2023/02/10 05:57:38;;;;;;;54.50;13.75;;;1.50;99.90;;;;;;6183768;23;20020;-82
2023/02/10 06:00:06;;;;;;;55.63;14.40;;;1.60;99.90;;;;;;6183984;23;20092;-81
2023/02/10 06:02:31;;;;;;;48.38;13.65;;;1.70;99.90;;;;;;6184473;23;20104;-82
2023/02/10 06:04:57;;;;;;;48.88;14.02;;;1.70;99.90;;;;;;6182587;23;20081;-84
2023/02/10 06:07:23;;;;;;;48.78;13.35;;;1.50;99.90;;;;;;6182459;23;20251;-84
2023/02/10 06:09:48;;;;;;;56.70;13.98;;;1.80;99.90;;;;;;6163754;23;20025;-82
2023/02/10 06:12:14;;;;;;;56.17;14.55;;;1.80;99.90;;;;;;6158791;23;20099;-84
2023/02/10 06:14:40;;;;;;;56.78;13.85;;;1.70;99.90;;;;;;6185565;23;20027;-84
2023/02/10 06:17:08;;;;;;;47.20;14.07;;;1.60;99.90;;;;;;6166560;23;20337;-81
2023/02/10 06:19:39;;;;;;;56.95;14.40;;;1.40;99.90;;;;;;6208332;23;20401;-83
2023/02/10 06:22:06;;;;;;;44.15;14.25;;;1.70;99.90;;;;;;6208389;23;20071;-83
2023/02/10 06:24:32;;;;;;;46.95;14.52;;;1.40;99.90;;;;;;6183242;23;20067;-83
2023/02/10 06:27:10;;;;;;;48.92;13.75;;;1.60;99.90;;;;;;6183426;23;20013;-82
2023/02/10 06:29:35;;;;;;;49.25;13.77;;;2.00;99.90;;;;;;6206801;23;20110;-84
2023/02/10 06:32:01;;;;;;;53.60;14.35;;;1.60;99.90;;;;;;6182469;23;20092;-84
2023/02/10 06:34:27;;;;;;;52.42;14.40;;;1.70;99.90;;;;;;6184642;23;20038;-83
2023/02/10 06:36:52;;;;;;;54.28;13.80;;;1.80;99.90;;;;;;6209355;23;20772;-83
2023/02/10 06:39:18;;;;;;;48.53;13.90;;;2.00;99.90;;;;;;6209406;23;20012;-84
2023/02/10 06:41:43;;;;;;;44.08;14.00;;;1.80;99.90;;;;;;6183644;23;20017;-84
2023/02/10 06:44:09;;;;;;;44.83;14.85;;;2.00;99.90;;;;;;6184547;23;20044;-83
2023/02/10 06:46:35;;;;;;;43.95;14.25;;;1.80;99.90;;;;;;6184424;23;20013;-82
2023/02/10 06:49:02;;;;;;;49.28;16.05;;;2.10;99.90;;;;;;6208474;23;20028;-82
2023/02/10 06:51:28;;;;;;;59.55;15.57;;;1.50;99.90;;;;;;6185772;23;20051;-84
2023/02/10 06:53:53;;;;;;;52.55;15.23;;;1.80;99.90;;;;;;6185104;23;20013;-83
2023/02/10 06:56:19;;;;;;;41.58;15.88;;;2.10;99.90;;;;;;6186271;23;20040;-83
2023/02/10 06:58:45;;;;;;;57.92;15.88;;;1.60;99.90;;;;;;6213673;23;20012;-83
2023/02/10 07:01:15;;;;;;;48.67;15.27;;;2.20;99.90;;;;;;6185449;23;20013;-83
2023/02/10 07:03:41;;;;;;;47.45;15.52;;;1.90;99.90;;;;;;6186147;23;20016;-84
2023/02/10 07:06:06;;;;;;;46.88;15.45;;;2.20;99.90;;;;;;6185168;23;20124;-83
2023/02/10 07:08:32;;;;;;;52.80;15.38;;;2.20;99.90;;;;;;6186813;23;20115;-82
2023/02/10 07:10:58;;;;;;;45.97;16.25;;;2.10;99.90;;;;;;6209983;23;20012;-84
2023/02/10 07:17:05;;;;;;;46.45;14.98;;;1.70;99.90;;;;;;6212645;23;20098;-82
2023/02/10 07:19:31;;;;;;;48.72;15.82;;;1.80;99.90;;;;;;6186147;23;20020;-83
2023/02/10 07:21:57;;;;;;;52.30;16.83;;;1.90;99.90;;;;;;6162899;23;20043;-81
2023/02/10 07:24:23;;;;;;;42.47;16.48;;;2.40;99.90;;;;;;6186977;23;20015;-85
2023/02/10 07:26:48;;;;;;;57.05;16.38;;;2.30;99.90;;;;;;6185353;23;20020;-83
2023/02/10 07:29:14;;;;;;;46.25;15.75;;;2.00;99.90;;;;;;6160341;23;20020;-82
2023/02/10 07:31:40;;;;;;;48.00;16.05;;;2.40;99.90;;;;;;6169867;23;20020;-81
2023/02/10 07:34:05;;;;;;;53.30;16.13;;;2.40;99.90;;;;;;6160158;23;20024;-84
2023/02/10 07:36:43;;;;;;;43.25;15.00;;;2.10;99.90;;;;;;6159286;23;20024;-84
2023/02/10 07:39:10;;;;;;;60.05;15.95;;;2.40;99.90;;;;;;6185044;23;20337;-82
2023/02/10 07:42:04;;;;;;;46.20;15.38;;;2.50;99.90;;;;;;6161300;23;20021;-82
2023/02/10 07:44:30;;;;;;;52.25;15.68;;;2.00;99.90;;;;;;6158658;23;20483;-83
2023/02/10 07:46:58;;;;;;;58.78;16.00;;;2.60;99.90;;;;;;6162097;23;20012;-83
2023/02/10 07:49:26;;;;;;;50.13;15.43;;;2.30;99.90;;;;;;6161503;23;20096;-82
2023/02/10 07:51:52;;;;;;;58.58;16.60;;;2.70;99.90;;;;;;6186029;23;20143;-84
2023/02/10 07:54:18;;;;;;;57.17;16.00;;;2.40;99.90;;;;;;6180969;23;20463;-83
2023/02/10 07:56:43;;;;;;;46.28;15.27;;;2.20;99.90;;;;;;6159094;23;20058;-81
2023/02/10 07:59:09;;;;;;;49.83;15.73;;;2.40;99.90;;;;;;6160776;23;20441;-83
2023/02/10 08:01:40;;;;;;;54.08;16.33;;;2.60;99.90;;;;;;6182627;23;20012;-83
2023/02/10 08:04:06;;;;;;;60.10;17.20;;;2.70;99.90;;;;;;6181427;23;20012;-83
2023/02/10 08:06:32;;;;;;;49.35;16.70;;;2.40;99.90;;;;;;6156096;23;20316;-84
2023/02/10 08:08:57;;;;;;;46.75;17.13;;;2.90;99.90;;;;;;6182349;23;20013;-84
2023/02/10 08:11:23;;;;;;;54.08;16.60;;;2.80;99.90;;;;;;6182553;23;20024;-85
2023/02/10 08:13:52;;;;;;;43.97;15.90;;;2.90;99.90;;;;;;6155859;23;20032;-83
2023/02/10 08:16:18;;;;;;;41.97;15.45;;;2.70;99.90;;;;;;6155975;23;20044;-83
2023/02/10 08:18:44;;;;;;;49.58;16.10;;;3.30;99.90;;;;;;6177878;23;20086;-81
2023/02/10 08:21:09;;;;;;;41.50;15.60;;;2.90;99.90;;;;;;6205582;23;20020;-81
2023/02/10 08:23:35;;;;;;;53.55;15.10;;;2.80;99.90;;;;;;6182530;23;20028;-84
2023/02/10 08:26:06;;;;;;;49.05;15.55;;;3.10;99.90;;;;;;6179802;23;20074;-84
2023/02/10 08:28:33;;;;;;;43.83;15.10;;;3.10;99.90;;;;;;6181749;23;20020;-83
2023/02/10 08:31:00;;;;;;;43.65;14.98;;;3.30;99.90;;;;;;6182481;23;20104;-83
2023/02/10 08:33:29;;;;;;;55.13;16.00;;;3.20;99.90;;;;;;6182831;23;20047;-83
2023/02/10 08:35:55;;;;;;;48.97;15.57;;;2.90;99.90;;;;;;6208678;23;20435;-82
2023/02/10 08:38:21;;;;;;;42.83;14.60;;;3.30;99.90;;;;;;6181460;23;20013;-82
2023/02/10 08:41:17;;;;;;;44.30;15.77;;;2.90;99.90;;;;;;6182585;23;20009;-82
2023/02/10 08:43:56;;;;;;;51.17;14.98;;;3.40;99.90;;;;;;6181277;23;20024;-82
2023/02/10 08:46:24;;;;;;;47.40;15.23;;;3.30;99.90;;;;;;6181364;23;20016;-81
2023/02/10 08:48:53;;;;;;;43.08;14.90;;;3.20;99.90;;;;;;6182082;23;20116;-83
2023/02/10 08:51:22;;;;;;;46.50;14.77;;;3.10;99.90;;;;;;6184296;23;20015;-82
2023/02/10 08:53:48;;;;;;;48.80;15.27;;;3.50;99.90;;;;;;6182057;23;20013;-81
2023/02/10 08:56:17;;;;;;;48.08;15.13;;;3.20;99.90;;;;;;6210790;23;20063;-82
2023/02/10 08:58:43;;;;;;;54.35;15.07;;;3.10;99.90;;;;;;6182509;23;20028;-82
2023/02/10 09:01:18;;;;;;;48.22;15.73;;;3.10;99.90;;;;;;6182479;23;20417;-84
2023/02/10 09:03:44;;;;;;;;;;;3.00;99.90;;;;;;6207950;23;20023;-80
2023/02/10 09:06:20;;;;;;;42.95;14.65;;;3.10;99.90;;;;;;6207314;23;19916;-82
2023/02/10 09:08:49;;;;;;;42.38;14.77;;;3.70;99.90;;;;;;6183008;23;20023;-80
2023/02/10 09:11:18;;;;;;;44.33;15.13;;;3.70;99.90;;;;;;6212424;23;20091;-82
2023/02/10 09:13:44;;;;;;;38.33;15.10;;;3.60;99.90;;;;;;6183505;23;20009;-82
2023/02/10 09:16:10;;;;;;;48.88;15.57;;;3.50;99.90;;;;;;6182723;23;20421;-82
2023/02/10 09:18:36;;;;;;;42.25;15.82;;;3.20;99.90;;;;;;6213395;23;20008;-80
2023/02/10 09:21:02;;;;;;;41.28;15.68;;;3.20;99.90;;;;;;6179287;23;20455;-81
2023/02/10 09:23:28;;;;;;;38.85;15.38;;;3.60;99.90;;;;;;6180950;23;20012;-80
2023/02/10 09:25:58;;;;;;;47.60;16.45;;;3.40;99.90;;;;;;6181115;23;20445;-81
2023/02/10 09:28:48;;;;;;;41.97;16.27;;;3.30;99.90;;;;;;6182135;23;20110;-84
2023/02/10 09:31:15;;;;;;;45.08;15.35;;;4.00;99.90;;;;;;6182535;23;20024;-80
2023/02/10 09:33:44;;;;;;;39.90;16.13;;;3.70;99.90;;;;;;6206947;23;20016;-81
2023/02/10 09:36:14;;;;;;;44.35;15.75;;;4.20;99.90;;;;;;6184368;23;20024;-82
2023/02/10 09:38:40;;;;;;;36.92;15.15;;;4.40;99.90;;;;;;6207086;23;20012;-81
2023/02/10 09:41:30;;;;;;;36.15;14.93;;;4.20;99.90;;;;;;6180940;23;20087;-81
2023/02/10 09:44:21;;;;;;;44.00;15.15;;;3.90;99.90;;;;;;6181338;23;20016;-85
2023/02/10 09:46:54;;;;;;;42.55;15.50;;;4.10;99.90;;;;;;6207250;23;20634;-84
2023/02/10 09:50:03;;;;;;;46.65;14.65;;;4.70;99.90;;;;;;6213100;23;20024;-85
2023/02/10 09:52:38;;;;;;;40.35;13.77;;;4.20;99.90;;;;;;6213423;23;20079;-83
2023/02/10 09:55:25;;;;;;;40.97;13.43;;;4.70;99.90;;;;;;6211962;23;20021;-81
2023/02/10 09:58:00;;;;;;;40.58;13.50;;;4.30;99.90;;;;;;6186299;23;20073;-84
2023/02/10 10:00:36;;;;;;;41.65;14.10;;;4.40;99.90;;;;;;6210411;23;20459;-83
2023/02/10 10:03:06;;;;;;;41.50;12.35;;;4.80;99.90;;;;;;6211100;23;20069;-83
2023/02/10 10:05:40;;;;;;;41.15;12.88;;;4.40;99.90;;;;;;6214130;23;20009;-81
2023/02/10 10:08:22;;;;;;;54.25;14.48;;;4.80;99.90;;;;;;6210969;23;20060;-82
2023/02/10 10:10:50;;;;;;;39.78;13.88;;;4.70;99.90;;;;;;6210899;23;20390;-82
2023/02/10 10:13:24;;;;;;;44.15;13.52;;;5.00;99.90;;;;;;6186272;23;20009;-81
2023/02/10 10:16:16;;;;;;;49.08;13.32;;;4.50;99.90;;;;;;6187683;23;20012;-82
2023/02/10 10:18:55;;;;;;;51.20;13.90;;;5.20;99.90;;;;;;6211987;23;20013;-84
2023/02/10 10:22:01;;;;;;;40.17;13.00;;;5.00;99.90;;;;;;6185659;23;20024;-82
2023/02/10 10:24:32;;;;;;;;;;;5.00;99.90;;;;;;6194994;23;20024;-82
2023/02/10 10:27:34;;;;;;;38.03;12.75;;;5.20;99.90;;;;;;6211946;23;19986;-84
2023/02/10 10:30:24;;;;;;;48.65;13.90;;;5.50;99.90;;;;;;6210406;23;20022;-82
2023/02/10 10:33:07;;;;;;;40.33;13.38;;;5.50;99.90;;;;;;6184718;23;20067;-85
2023/02/10 10:35:40;;;;;;;43.92;13.73;;;5.10;99.90;;;;;;6185487;23;20127;-83
2023/02/10 10:38:15;;;;;;;32.08;12.60;;;5.60;99.90;;;;;;6187262;23;20009;-82
2023/02/10 10:40:43;;;;;;;44.92;13.45;;;5.50;99.90;;;;;;6193122;23;20425;-82
2023/02/10 10:43:12;;;;;;;38.13;11.82;;;5.40;99.90;;;;;;6220670;23;20027;-83
2023/02/10 10:45:57;;;;;;;43.40;13.20;;;5.40;99.90;;;;;;6194854;23;20027;-81
2023/02/10 10:48:26;;;;;;;40.08;13.68;;;5.50;99.90;;;;;;6184098;23;20016;-83
2023/02/10 10:51:02;;;;;;;40.22;12.70;;;5.90;99.90;;;;;;6207194;23;20053;-80
2023/02/10 10:53:27;;;;;;;34.05;12.18;;;5.90;99.90;;;;;;6206037;23;20115;-82
2023/02/10 10:55:55;;;;;;;50.13;13.55;;;6.00;99.90;;;;;;6184365;23;20724;-81
2023/02/10 10:58:33;;;;;;;39.40;12.68;;;5.60;99.90;;;;;;6208486;23;20694;-83
2023/02/10 11:01:01;;;;;;;39.30;12.82;;;5.60;99.90;;;;;;6208226;23;20009;-83
2023/02/10 11:03:28;;;;;;;34.28;12.68;;;5.70;99.90;;;;;;6209198;23;20013;-80
2023/02/10 11:06:07;;;;;;;40.45;11.98;;;5.60;99.90;;;;;;6207127;23;20028;-82
2023/02/10 11:08:58;;;;;;;35.13;12.88;;;5.70;99.90;;;;;;6181428;23;20016;-85
2023/02/10 11:11:33;;;;;;;34.15;11.73;;;5.80;99.90;;;;;;6205562;23;20027;-81
2023/02/10 11:13:59;;;;;;;34.47;12.40;;;6.30;99.90;;;;;;6205970;23;20012;-81
2023/02/10 11:16:24;;;;;;;36.47;12.02;;;6.00;99.90;;;;;;6179195;23;20468;-83
2023/02/10 11:19:01;;;;;;;36.25;11.25;;;6.10;99.90;;;;;;6179121;23;20017;-81
2023/02/10 11:21:35;;;;;;;36.83;11.00;;;6.30;99.90;;;;;;6182588;23;20017;-84
2023/02/10 11:24:01;;;;;;;39.25;11.18;;;6.50;99.90;;;;;;6204529;23;20084;-80
2023/02/10 11:26:27;;;;;;;40.60;11.25;;;6.20;99.90;;;;;;6207562;23;20013;-80
2023/02/10 11:28:55;;;;;;;34.33;9.85;;;6.70;99.90;;;;;;6203052;23;20843;-82
2023/02/10 11:31:34;;;;;;;33.20;9.82;;;6.70;99.90;;;;;;6179546;23;20520;-83
2023/02/10 11:34:31;;;;;;;27.25;8.50;;;6.70;99.90;;;;;;6178757;23;20031;-85
2023/02/10 11:37:08;;;;;;;31.55;8.43;;;6.70;99.90;;;;;;6181548;23;20267;-80
2023/02/10 11:39:38;;;;;;;32.72;9.65;;;6.60;99.90;;;;;;6203980;23;20048;-84
2023/02/10 11:42:26;;;;;;;27.77;9.40;;;6.80;99.90;;;;;;6204965;23;20393;-84
2023/02/10 11:44:56;;;;;;;33.60;8.70;;;6.90;99.90;;;;;;6204760;23;20023;-84
2023/02/10 11:47:22;;;;;;;30.10;8.75;;;7.00;99.90;;;;;;6179896;23;20027;-84
2023/02/10 11:49:49;;;;;;;34.30;8.40;;;7.10;99.90;;;;;;6179544;23;20021;-83
2023/02/10 11:52:22;;;;;;;26.50;7.90;;;6.80;99.90;;;;;;6179829;23;20017;-86
2023/02/10 11:54:49;;;;;;;30.60;8.23;;;7.00;99.90;;;;;;6179334;23;20051;-85
2023/02/10 12:01:22;;;;;;;28.75;7.80;;;7.20;99.90;;;;;;6027656;23;20332;-81
2023/02/10 12:04:03;;;;;;;26.67;8.20;;;7.00;99.90;;;;;;5947996;23;20094;-85
2023/02/10 12:06:45;;;;;;;31.17;7.68;;;7.00;99.90;;;;;;5927861;24;20027;-84
2023/02/10 12:09:13;;;;;;;23.50;6.85;;;7.10;99.90;;;;;;5974635;24;20016;-86
2023/02/10 12:11:54;;;;;;;29.70;7.53;;;7.40;99.90;;;;;;5951478;23;20213;-85
2023/02/10 12:15:00;;;;;;;29.58;6.47;;;7.20;99.90;;;;;;5953730;24;20024;-88
2023/02/10 12:18:13;;;;;;;26.13;6.00;;;7.50;99.90;;;;;;5946236;24;20896;-87
2023/02/10 12:21:05;;;;;;;23.55;5.32;;;7.40;99.90;;;;;;5931194;24;20059;-85
2023/02/10 12:23:53;;;;;;;28.67;5.38;;;7.50;99.90;;;;;;5956987;23;20147;-85
2023/02/10 12:26:21;;;;;;;30.20;5.60;;;7.80;99.90;;;;;;5956718;24;20016;-88
2023/02/10 12:29:05;;;;;;;15.13;4.65;;;7.70;99.90;;;;;;5961093;24;20501;-86
2023/02/10 12:32:00;;;;;;;19.75;5.07;;;7.40;99.90;;;;;;5956198;24;20020;-88
2023/02/10 12:34:55;;;;;;;25.20;4.75;;;7.50;99.90;;;;;;5931768;24;20051;-87
2023/02/10 12:37:52;;;;;;;25.27;4.07;;;7.60;99.90;;;;;;5946226;23;20026;-87
2023/02/10 12:40:33;;;;;;;29.38;5.32;;;7.60;99.90;;;;;;6017958;23;20067;-82
2023/02/10 12:43:28;;;;;;;24.08;5.55;;;7.90;99.90;;;;;;6058614;23;20041;-81
2023/02/10 12:50:06;;;;;;;23.88;4.82;;;7.80;99.90;;;;;;6092578;23;20069;-84
2023/02/10 12:52:48;;;;;;;22.98;4.65;;;7.80;99.90;;;;;;6043817;23;20046;-85
2023/02/10 12:55:51;;;;;;;21.85;4.45;;;7.80;99.90;;;;;;6045534;23;20042;-87
2023/02/10 12:58:26;;;;;;;21.60;3.90;;;7.70;99.90;;;;;;6069676;23;20119;-85
2023/02/10 13:04:21;;;;;;;25.38;4.63;;;7.60;99.90;;;;;;6069195;23;20024;-85
2023/02/10 13:06:54;;;;;;;22.10;4.70;;;7.70;99.90;;;;;;6069147;23;20018;-85
2023/02/10 13:09:38;;;;;;;24.77;4.82;;;7.80;99.90;;;;;;6045350;23;20411;-87
2023/02/10 13:12:17;;;;;;;25.13;4.63;;;7.60;99.90;;;;;;6043639;23;20010;-86
2023/02/10 13:18:30;;;;;;;17.10;4.35;;;7.60;99.90;;;;;;6122784;23;20106;-88
2023/02/10 13:21:06;;;;;;;16.88;4.13;;;7.30;99.90;;;;;;6073867;23;20017;-87
2023/02/10 13:23:40;;;;;;;19.90;5.38;;;7.50;99.90;;;;;;6074308;23;20045;-86